Time;durP1;ratioP1;P1;durP2;ratioP2;P2;SDS_P1;SDS_P2;PMS_P1;PMS_P2;Temp;Humidity;BMP_temperature;BMP_pressure;BME280_temperature;BME280_humidity;BME280_pressure;Samples;Min_cycle;Max_cycle;Signal;HPM_P1;HPM_P2
2022/10/03 00:00:07;;;;;;;1.85;1.75;;;;;;;11.32;100;96013.75;;;;
2022/10/03 00:01:11;;;;;;;1.85;1.75;;;;;;;11.32;100;96013.75;;;;
2022/10/03 00:02:22;;;;;;;1.85;1.75;;;;;;;11.32;100;96013.75;;;;
2022/10/03 00:03:34;;;;;;;1.85;1.75;;;;;;;11.32;100;96013.75;;;;
2022/10/03 00:04:45;;;;;;;1.85;1.75;;;;;;;11.32;100;96013.75;;;;
2022/10/03 00:05:57;;;;;;;1.85;1.75;;;;;;;11.32;100;96013.75;;;;
2022/10/03 00:07:08;;;;;;;1.85;1.75;;;;;;;11.32;100;96013.75;;;;
2022/10/03 00:08:24;;;;;;;1.85;1.75;;;;;;;11.32;100;96013.75;;;;
2022/10/03 00:09:41;;;;;;;1.85;1.75;;;;;;;11.32;100;96013.75;;;;
2022/10/03 00:10:56;;;;;;;1.85;1.75;;;;;;;11.32;100;96013.75;;;;
2022/10/03 00:12:05;;;;;;;1.85;1.75;;;;;;;11.32;100;96013.75;;;;
2022/10/03 00:13:15;;;;;;;1.85;1.75;;;;;;;11.32;100;96013.75;;;;
2022/10/03 00:14:24;;;;;;;1.85;1.75;;;;;;;11.32;100;96013.75;;;;
2022/10/03 00:15:34;;;;;;;1.85;1.75;;;;;;;11.32;100;96013.75;;;;
2022/10/03 00:16:43;;;;;;;1.85;1.75;;;;;;;11.32;100;96013.75;;;;
2022/10/03 00:17:51;;;;;;;1.85;1.75;;;;;;;11.32;100;96013.75;;;;
2022/10/03 00:19:03;;;;;;;2.65;2.4;;;;;;;11.02;100;96007.51;;;;
2022/10/03 00:20:12;;;;;;;2.65;2.4;;;;;;;11.02;100;96007.51;;;;
2022/10/03 00:21:37;;;;;;;2.65;2.4;;;;;;;11.02;100;96007.51;;;;
2022/10/03 00:22:49;;;;;;;2.65;2.4;;;;;;;11.02;100;96007.51;;;;
2022/10/03 00:23:58;;;;;;;2.65;2.4;;;;;;;11.02;100;96007.51;;;;
2022/10/03 00:25:08;;;;;;;2.65;2.4;;;;;;;11.02;100;96007.51;;;;
2022/10/03 00:26:26;;;;;;;2.65;2.4;;;;;;;11.02;100;96007.51;;;;
2022/10/03 00:27:38;;;;;;;2.65;2.4;;;;;;;11.02;100;96007.51;;;;
2022/10/03 00:28:46;;;;;;;2.65;2.4;;;;;;;11.02;100;96007.51;;;;
2022/10/03 00:29:58;;;;;;;3.5;2.35;;;;;;;10.59;100;96028.54;;;;
2022/10/03 00:31:11;;;;;;;3.5;2.35;;;;;;;10.59;100;96028.54;;;;
2022/10/03 00:32:14;;;;;;;3.5;2.35;;;;;;;10.59;100;96028.54;;;;
2022/10/03 00:33:28;;;;;;;3.5;2.35;;;;;;;10.59;100;96028.54;;;;
2022/10/03 00:34:39;;;;;;;3.5;2.35;;;;;;;10.59;100;96028.54;;;;
2022/10/03 00:35:56;;;;;;;3.5;2.35;;;;;;;10.59;100;96028.54;;;;
2022/10/03 00:37:05;;;;;;;3.5;2.35;;;;;;;10.59;100;96028.54;;;;
2022/10/03 00:38:21;;;;;;;3.5;2.35;;;;;;;10.59;100;96028.54;;;;
2022/10/03 00:39:44;;;;;;;3.5;2.35;;;;;;;10.59;100;96028.54;;;;
2022/10/03 00:41:05;;;;;;;2.55;2.35;;;;;;;10.23;100;96041.6;;;;
2022/10/03 00:42:32;;;;;;;2.55;2.35;;;;;;;10.23;100;96041.6;;;;
2022/10/03 00:43:55;;;;;;;2.55;2.35;;;;;;;10.23;100;96041.6;;;;
2022/10/03 00:45:24;;;;;;;2.55;2.35;;;;;;;10.23;100;96041.6;;;;
2022/10/03 00:47:47;;;;;;;2.55;2.35;;;;;;;10.23;100;96041.6;;;;
2022/10/03 00:53:05;;;;;;;3.15;2.85;;;;;;;9.95;100;96036.24;;;;
2022/10/03 00:54:27;;;;;;;3.15;2.85;;;;;;;9.95;100;96036.24;;;;
2022/10/03 00:55:50;;;;;;;3.15;2.85;;;;;;;9.95;100;96036.24;;;;
2022/10/03 00:57:06;;;;;;;3.15;2.85;;;;;;;9.95;100;96036.24;;;;
2022/10/03 00:58:21;;;;;;;3.15;2.85;;;;;;;9.95;100;96036.24;;;;
2022/10/03 00:59:37;;;;;;;3.15;2.85;;;;;;;9.95;100;96036.24;;;;
2022/10/03 01:00:56;;;;;;;3.15;2.85;;;;;;;9.95;100;96036.24;;;;
2022/10/03 01:02:18;;;;;;;3.15;2.85;;;;;;;9.74;100;96045.06;;;;
2022/10/03 01:03:32;;;;;;;3.15;2.85;;;;;;;9.74;100;96045.06;;;;
2022/10/03 01:04:43;;;;;;;3.15;2.85;;;;;;;9.74;100;96045.06;;;;
2022/10/03 01:05:54;;;;;;;3.15;2.85;;;;;;;9.74;100;96045.06;;;;
2022/10/03 01:07:10;;;;;;;3.15;2.85;;;;;;;9.74;100;96045.06;;;;
2022/10/03 01:08:28;;;;;;;3.15;2.85;;;;;;;9.74;100;96045.06;;;;
2022/10/03 01:09:40;;;;;;;3.15;2.85;;;;;;;9.74;100;96045.06;;;;
2022/10/03 01:10:52;;;;;;;3.15;2.85;;;;;;;9.74;100;96045.06;;;;
2022/10/03 01:12:05;;;;;;;3.15;2.85;;;;;;;9.74;100;96045.06;;;;
2022/10/03 01:13:23;;;;;;;4.8;3.15;;;;;;;9.55;100;96046.48;;;;
2022/10/03 01:14:36;;;;;;;4.8;3.15;;;;;;;9.55;100;96046.48;;;;
2022/10/03 01:15:55;;;;;;;4.8;3.15;;;;;;;9.55;100;96046.48;;;;
2022/10/03 01:17:04;;;;;;;4.8;3.15;;;;;;;9.55;100;96046.48;;;;
2022/10/03 01:18:14;;;;;;;4.8;3.15;;;;;;;9.55;100;96046.48;;;;
2022/10/03 01:19:26;;;;;;;4.8;3.15;;;;;;;9.55;100;96046.48;;;;
2022/10/03 01:20:43;;;;;;;4.8;3.15;;;;;;;9.55;100;96046.48;;;;
2022/10/03 01:21:53;;;;;;;4.8;3.15;;;;;;;9.55;100;96046.48;;;;
2022/10/03 01:23:08;;;;;;;3.900001;3.299999;;;;;;;9.31;100;96055.64;;;;
2022/10/03 01:24:27;;;;;;;3.900001;3.299999;;;;;;;9.31;100;96055.64;;;;
2022/10/03 01:25:47;;;;;;;3.900001;3.299999;;;;;;;9.31;100;96055.64;;;;
2022/10/03 01:26:52;;;;;;;3.900001;3.299999;;;;;;;9.31;100;96055.64;;;;
2022/10/03 01:33:14;;;;;;;3.900001;3.299999;;;;;;;9.31;100;96055.64;;;;
2022/10/03 01:34:21;;;;;;;3.45;3.149999;;;;;;;9.09;100;96060.55;;;;
2022/10/03 01:35:27;;;;;;;3.45;3.149999;;;;;;;9.09;100;96060.55;;;;
2022/10/03 01:36:38;;;;;;;3.45;3.149999;;;;;;;9.09;100;96060.55;;;;
2022/10/03 01:37:50;;;;;;;3.45;3.149999;;;;;;;9.09;100;96060.55;;;;
2022/10/03 01:39:02;;;;;;;3.45;3.149999;;;;;;;9.09;100;96060.55;;;;
2022/10/03 01:40:13;;;;;;;3.45;3.149999;;;;;;;9.09;100;96060.55;;;;
2022/10/03 01:41:24;;;;;;;3.45;3.149999;;;;;;;9.09;100;96060.55;;;;
2022/10/03 01:42:33;;;;;;;3.45;3.149999;;;;;;;9.09;100;96060.55;;;;
2022/10/03 01:43:43;;;;;;;3.45;3.149999;;;;;;;9.09;100;96060.55;;;;
2022/10/03 01:44:50;;;;;;;3.6;3.3;;;;;;;8.88;100;96076.28;;;;
2022/10/03 01:46:04;;;;;;;3.6;3.3;;;;;;;8.88;100;96076.28;;;;
2022/10/03 01:47:10;;;;;;;3.6;3.3;;;;;;;8.88;100;96076.28;;;;
2022/10/03 01:48:20;;;;;;;3.6;3.3;;;;;;;8.88;100;96076.28;;;;
2022/10/03 01:49:30;;;;;;;3.6;3.3;;;;;;;8.88;100;96076.28;;;;
2022/10/03 01:50:40;;;;;;;3.6;3.3;;;;;;;8.88;100;96076.28;;;;
2022/10/03 01:51:51;;;;;;;3.6;3.3;;;;;;;8.88;100;96076.28;;;;
2022/10/03 01:52:59;;;;;;;3.6;3.3;;;;;;;8.88;100;96076.28;;;;
2022/10/03 01:54:06;;;;;;;3.6;3.3;;;;;;;8.88;100;96076.28;;;;
2022/10/03 01:55:17;;;;;;;4.15;3.75;;;;;;;8.8;100;96085.5;;;;
2022/10/03 01:56:24;;;;;;;4.15;3.75;;;;;;;8.8;100;96085.5;;;;
2022/10/03 01:57:34;;;;;;;4.15;3.75;;;;;;;8.8;100;96085.5;;;;
2022/10/03 01:58:42;;;;;;;4.15;3.75;;;;;;;8.8;100;96085.5;;;;
2022/10/03 01:59:53;;;;;;;4.15;3.75;;;;;;;8.8;100;96085.5;;;;
2022/10/03 02:01:00;;;;;;;4.15;3.75;;;;;;;8.8;100;96085.5;;;;
2022/10/03 02:02:08;;;;;;;4.15;3.75;;;;;;;8.8;100;96085.5;;;;
2022/10/03 02:03:15;;;;;;;4.15;3.75;;;;;;;8.8;100;96085.5;;;;
2022/10/03 02:04:22;;;;;;;4.15;3.75;;;;;;;8.8;100;96085.5;;;;
2022/10/03 02:05:35;;;;;;;4.15;3.75;;;;;;;8.8;100;96085.5;;;;
2022/10/03 02:06:48;;;;;;;4;3.7;;;;;;;8.72;100;96101.92;;;;
2022/10/03 02:07:58;;;;;;;4;3.7;;;;;;;8.72;100;96101.92;;;;
2022/10/03 02:09:04;;;;;;;4;3.7;;;;;;;8.72;100;96101.92;;;;
2022/10/03 02:10:15;;;;;;;4;3.7;;;;;;;8.72;100;96101.92;;;;
2022/10/03 02:11:27;;;;;;;4;3.7;;;;;;;8.72;100;96101.92;;;;
2022/10/03 02:12:34;;;;;;;4;3.7;;;;;;;8.72;100;96101.92;;;;
2022/10/03 02:13:38;;;;;;;4;3.7;;;;;;;8.72;100;96101.92;;;;
2022/10/03 02:14:46;;;;;;;4;3.7;;;;;;;8.72;100;96101.92;;;;
2022/10/03 02:15:53;;;;;;;4;3.7;;;;;;;8.72;100;96101.92;;;;
2022/10/03 02:17:01;;;;;;;3.75;3.45;;;;;;;8.56;100;96115.25;;;;
2022/10/03 02:18:07;;;;;;;3.75;3.45;;;;;;;8.56;100;96115.25;;;;
2022/10/03 02:19:19;;;;;;;3.75;3.45;;;;;;;8.56;100;96115.25;;;;
2022/10/03 02:20:26;;;;;;;3.75;3.45;;;;;;;8.56;100;96115.25;;;;
2022/10/03 02:21:39;;;;;;;3.75;3.45;;;;;;;8.56;100;96115.25;;;;
2022/10/03 02:22:47;;;;;;;3.75;3.45;;;;;;;8.56;100;96115.25;;;;
2022/10/03 02:23:51;;;;;;;3.75;3.45;;;;;;;8.56;100;96115.25;;;;
2022/10/03 02:25:20;;;;;;;3.75;3.45;;;;;;;8.56;100;96115.25;;;;
2022/10/03 02:26:26;;;;;;;3.75;3.45;;;;;;;8.56;100;96115.25;;;;
2022/10/03 02:27:54;;;;;;;4.45;4.05;;;;;;;8.43;100;96104.1;;;;
2022/10/03 02:29:12;;;;;;;4.45;4.05;;;;;;;8.43;100;96104.1;;;;
2022/10/03 02:31:03;;;;;;;4.45;4.05;;;;;;;8.43;100;96104.1;;;;
2022/10/03 02:32:26;;;;;;;4.45;4.05;;;;;;;8.43;100;96104.1;;;;
2022/10/03 02:33:50;;;;;;;4.45;4.05;;;;;;;8.43;100;96104.1;;;;
2022/10/03 02:36:18;;;;;;;4.45;4.05;;;;;;;8.43;100;96104.1;;;;
2022/10/03 02:38:06;;;;;;;4.349999;3.95;;;;;;;8.31;100;96105.84;;;;
2022/10/03 02:39:23;;;;;;;4.349999;3.95;;;;;;;8.31;100;96105.84;;;;
2022/10/03 02:41:42;;;;;;;4.349999;3.95;;;;;;;8.31;100;96105.84;;;;
2022/10/03 02:43:04;;;;;;;4.349999;3.95;;;;;;;8.31;100;96105.84;;;;
2022/10/03 02:48:27;;;;;;;3.75;3.45;;;;;;;8.12;100;96107.17;;;;
2022/10/03 02:49:48;;;;;;;3.75;3.45;;;;;;;8.12;100;96107.17;;;;
2022/10/03 02:51:28;;;;;;;3.75;3.45;;;;;;;8.12;100;96107.17;;;;
2022/10/03 02:52:48;;;;;;;3.75;3.45;;;;;;;8.12;100;96107.17;;;;
2022/10/03 02:54:10;;;;;;;3.75;3.45;;;;;;;8.12;100;96107.17;;;;
2022/10/03 02:55:41;;;;;;;3.75;3.45;;;;;;;8.12;100;96107.17;;;;
2022/10/03 02:57:02;;;;;;;3.75;3.45;;;;;;;8.12;100;96107.17;;;;
2022/10/03 02:58:22;;;;;;;3.75;3.45;;;;;;;8.12;100;96107.17;;;;
2022/10/03 02:59:53;;;;;;;3.45;3.15;;;;;;;7.96;100;96118.34;;;;
2022/10/03 03:01:06;;;;;;;3.45;3.15;;;;;;;7.96;100;96118.34;;;;
2022/10/03 03:02:41;;;;;;;3.45;3.15;;;;;;;7.96;100;96118.34;;;;
2022/10/03 03:04:13;;;;;;;3.45;3.15;;;;;;;7.96;100;96118.34;;;;
2022/10/03 03:05:43;;;;;;;3.45;3.15;;;;;;;7.96;100;96118.34;;;;
2022/10/03 03:07:12;;;;;;;3.45;3.15;;;;;;;7.96;100;96118.34;;;;
2022/10/03 03:08:32;;;;;;;3.45;3.15;;;;;;;7.96;100;96118.34;;;;
2022/10/03 03:09:53;;;;;;;3.8;3.400001;;;;;;;7.79;100;96120.67;;;;
2022/10/03 03:12:31;;;;;;;3.8;3.400001;;;;;;;7.79;100;96120.67;;;;
2022/10/03 03:13:54;;;;;;;3.8;3.400001;;;;;;;7.79;100;96120.67;;;;
2022/10/03 03:15:37;;;;;;;3.8;3.400001;;;;;;;7.79;100;96120.67;;;;
2022/10/03 03:17:05;;;;;;;3.8;3.400001;;;;;;;7.79;100;96120.67;;;;
2022/10/03 03:18:23;;;;;;;3.8;3.400001;;;;;;;7.79;100;96120.67;;;;
2022/10/03 03:19:32;;;;;;;3.8;3.400001;;;;;;;7.79;100;96120.67;;;;
2022/10/03 03:20:45;;;;;;;4.35;3.3;;;;;;;7.65;100;96132.84;;;;
2022/10/03 03:22:00;;;;;;;4.35;3.3;;;;;;;7.65;100;96132.84;;;;
2022/10/03 03:23:14;;;;;;;4.35;3.3;;;;;;;7.65;100;96132.84;;;;
2022/10/03 03:24:34;;;;;;;4.35;3.3;;;;;;;7.65;100;96132.84;;;;
2022/10/03 03:25:52;;;;;;;4.35;3.3;;;;;;;7.65;100;96132.84;;;;
2022/10/03 03:27:12;;;;;;;4.35;3.3;;;;;;;7.65;100;96132.84;;;;
2022/10/03 03:28:31;;;;;;;4.35;3.3;;;;;;;7.65;100;96132.84;;;;
2022/10/03 03:29:42;;;;;;;4.35;3.3;;;;;;;7.65;100;96132.84;;;;
2022/10/03 03:30:52;;;;;;;4.35;3.3;;;;;;;7.65;100;96132.84;;;;
2022/10/03 03:32:03;;;;;;;4.15;3.75;;;;;;;7.45;100;96151.35;;;;
2022/10/03 03:33:14;;;;;;;4.15;3.75;;;;;;;7.45;100;96151.35;;;;
2022/10/03 03:34:23;;;;;;;4.15;3.75;;;;;;;7.45;100;96151.35;;;;
2022/10/03 03:35:32;;;;;;;4.15;3.75;;;;;;;7.45;100;96151.35;;;;
2022/10/03 03:36:48;;;;;;;4.15;3.75;;;;;;;7.45;100;96151.35;;;;
2022/10/03 03:37:56;;;;;;;4.15;3.75;;;;;;;7.45;100;96151.35;;;;
2022/10/03 03:39:09;;;;;;;4.15;3.75;;;;;;;7.45;100;96151.35;;;;
2022/10/03 03:40:28;;;;;;;4.15;3.75;;;;;;;7.45;100;96151.35;;;;
2022/10/03 03:41:39;;;;;;;4.15;3.75;;;;;;;7.45;100;96151.35;;;;
2022/10/03 03:42:53;;;;;;;5.4;3.55;;;;;;;7.29;100;96156.2;;;;
2022/10/03 03:44:11;;;;;;;5.4;3.55;;;;;;;7.29;100;96156.2;;;;
2022/10/03 03:45:35;;;;;;;5.4;3.55;;;;;;;7.29;100;96156.2;;;;
2022/10/03 03:46:46;;;;;;;5.4;3.55;;;;;;;7.29;100;96156.2;;;;
2022/10/03 03:48:07;;;;;;;5.4;3.55;;;;;;;7.29;100;96156.2;;;;
2022/10/03 03:49:24;;;;;;;5.4;3.55;;;;;;;7.29;100;96156.2;;;;
2022/10/03 03:50:37;;;;;;;5.4;3.55;;;;;;;7.29;100;96156.2;;;;
2022/10/03 03:51:47;;;;;;;5.4;3.55;;;;;;;7.29;100;96156.2;;;;
2022/10/03 03:53:00;;;;;;;4.650001;3.8;;;;;;;7.16;100;96160.35;;;;
2022/10/03 03:54:21;;;;;;;4.650001;3.8;;;;;;;7.16;100;96160.35;;;;
2022/10/03 03:56:15;;;;;;;4.650001;3.8;;;;;;;7.16;100;96160.35;;;;
2022/10/03 03:57:32;;;;;;;4.650001;3.8;;;;;;;7.16;100;96160.35;;;;
2022/10/03 03:58:50;;;;;;;4.650001;3.8;;;;;;;7.16;100;96160.35;;;;
2022/10/03 04:00:06;;;;;;;4.650001;3.8;;;;;;;7.16;100;96160.35;;;;
2022/10/03 04:01:13;;;;;;;4.650001;3.8;;;;;;;7.16;100;96160.35;;;;
2022/10/03 04:02:31;;;;;;;4.650001;3.8;;;;;;;7.16;100;96160.35;;;;
2022/10/03 04:04:18;;;;;;;3.8;3.5;;;;;;;7.05;100;96165.96;;;;
2022/10/03 04:05:36;;;;;;;3.8;3.5;;;;;;;7.05;100;96165.96;;;;
2022/10/03 04:06:55;;;;;;;3.8;3.5;;;;;;;7.05;100;96165.96;;;;
2022/10/03 04:08:09;;;;;;;3.8;3.5;;;;;;;7.05;100;96165.96;;;;
2022/10/03 04:09:24;;;;;;;3.8;3.5;;;;;;;7.05;100;96165.96;;;;
2022/10/03 04:10:45;;;;;;;3.8;3.5;;;;;;;7.05;100;96165.96;;;;
2022/10/03 04:11:58;;;;;;;3.8;3.5;;;;;;;7.05;100;96165.96;;;;
2022/10/03 04:13:03;;;;;;;3.8;3.5;;;;;;;7.05;100;96165.96;;;;
2022/10/03 04:14:18;;;;;;;4.55;4.149999;;;;;;;7.04;100;96165.55;;;;
2022/10/03 04:15:36;;;;;;;4.55;4.149999;;;;;;;7.04;100;96165.55;;;;
2022/10/03 04:22:30;;;;;;;4.55;4.149999;;;;;;;7.04;100;96165.55;;;;
2022/10/03 04:23:51;;;;;;;4.55;4.149999;;;;;;;7.04;100;96165.55;;;;
2022/10/03 04:25:06;;;;;;;4.55;4.15;;;;;;;7.04;100;96169.98;;;;
2022/10/03 04:26:23;;;;;;;4.55;4.15;;;;;;;7.04;100;96169.98;;;;
2022/10/03 04:27:40;;;;;;;4.55;4.15;;;;;;;7.04;100;96169.98;;;;
2022/10/03 04:28:55;;;;;;;4.55;4.15;;;;;;;7.04;100;96169.98;;;;
2022/10/03 04:30:23;;;;;;;4.55;4.15;;;;;;;7.04;100;96169.98;;;;
2022/10/03 04:31:34;;;;;;;4.55;4.15;;;;;;;7.04;100;96169.98;;;;
2022/10/03 04:32:46;;;;;;;4.55;4.15;;;;;;;7.04;100;96169.98;;;;
2022/10/03 04:33:59;;;;;;;4.55;4.15;;;;;;;7.04;100;96169.98;;;;
2022/10/03 04:35:17;;;;;;;5.5;4.15;;;;;;;7;100;96163.01;;;;
2022/10/03 04:36:54;;;;;;;5.5;4.15;;;;;;;7;100;96163.01;;;;
2022/10/03 04:38:10;;;;;;;5.5;4.15;;;;;;;7;100;96163.01;;;;
2022/10/03 04:39:19;;;;;;;5.5;4.15;;;;;;;7;100;96163.01;;;;
2022/10/03 04:40:33;;;;;;;5.5;4.15;;;;;;;7;100;96163.01;;;;
2022/10/03 04:41:44;;;;;;;5.5;4.15;;;;;;;7;100;96163.01;;;;
2022/10/03 04:42:50;;;;;;;5.5;4.15;;;;;;;7;100;96163.01;;;;
2022/10/03 04:44:03;;;;;;;5.5;4.15;;;;;;;7;100;96163.01;;;;
2022/10/03 04:45:16;;;;;;;5.5;4.15;;;;;;;7;100;96163.01;;;;
2022/10/03 04:46:32;;;;;;;4.400001;4;;;;;;;6.93;100;96169.02;;;;
2022/10/03 04:47:42;;;;;;;4.400001;4;;;;;;;6.93;100;96169.02;;;;
2022/10/03 04:48:50;;;;;;;4.400001;4;;;;;;;6.93;100;96169.02;;;;
2022/10/03 04:49:57;;;;;;;4.400001;4;;;;;;;6.93;100;96169.02;;;;
2022/10/03 04:51:07;;;;;;;4.400001;4;;;;;;;6.93;100;96169.02;;;;
2022/10/03 04:52:20;;;;;;;4.400001;4;;;;;;;6.93;100;96169.02;;;;
2022/10/03 04:53:27;;;;;;;4.400001;4;;;;;;;6.93;100;96169.02;;;;
2022/10/03 04:54:43;;;;;;;4.400001;4;;;;;;;6.93;100;96169.02;;;;
2022/10/03 04:55:53;;;;;;;4.400001;4;;;;;;;6.93;100;96169.02;;;;
2022/10/03 04:57:04;;;;;;;4.45;4.05;;;;;;;6.86;100;96162.78;;;;
2022/10/03 04:58:16;;;;;;;4.45;4.05;;;;;;;6.86;100;96162.78;;;;
2022/10/03 04:59:30;;;;;;;4.45;4.05;;;;;;;6.86;100;96162.78;;;;
2022/10/03 05:00:44;;;;;;;4.45;4.05;;;;;;;6.86;100;96162.78;;;;
2022/10/03 05:02:01;;;;;;;4.45;4.05;;;;;;;6.86;100;96162.78;;;;
2022/10/03 05:03:09;;;;;;;4.45;4.05;;;;;;;6.86;100;96162.78;;;;
2022/10/03 05:04:19;;;;;;;4.45;4.05;;;;;;;6.86;100;96162.78;;;;
2022/10/03 05:05:29;;;;;;;4.45;4.05;;;;;;;6.86;100;96162.78;;;;
2022/10/03 05:06:40;;;;;;;4.45;4.05;;;;;;;6.86;100;96162.78;;;;
2022/10/03 05:07:47;;;;;;;4.4;4;;;;;;;6.78;100;96169.78;;;;
2022/10/03 05:08:58;;;;;;;4.4;4;;;;;;;6.78;100;96169.78;;;;
2022/10/03 05:10:14;;;;;;;4.4;4;;;;;;;6.78;100;96169.78;;;;
2022/10/03 05:11:28;;;;;;;4.4;4;;;;;;;6.78;100;96169.78;;;;
2022/10/03 05:12:47;;;;;;;4.4;4;;;;;;;6.78;100;96169.78;;;;
2022/10/03 05:13:56;;;;;;;4.4;4;;;;;;;6.78;100;96169.78;;;;
2022/10/03 05:15:04;;;;;;;4.4;4;;;;;;;6.78;100;96169.78;;;;
2022/10/03 05:16:20;;;;;;;4.4;4;;;;;;;6.78;100;96169.78;;;;
2022/10/03 05:17:36;;;;;;;4.4;4;;;;;;;6.78;100;96169.78;;;;
2022/10/03 05:18:45;;;;;;;4.35;3.95;;;;;;;6.71;100;96174.57;;;;
2022/10/03 05:19:51;;;;;;;4.35;3.95;;;;;;;6.71;100;96174.57;;;;
2022/10/03 05:21:09;;;;;;;4.35;3.95;;;;;;;6.71;100;96174.57;;;;
2022/10/03 05:22:15;;;;;;;4.35;3.95;;;;;;;6.71;100;96174.57;;;;
2022/10/03 05:23:29;;;;;;;4.35;3.95;;;;;;;6.71;100;96174.57;;;;
2022/10/03 05:24:44;;;;;;;4.35;3.95;;;;;;;6.71;100;96174.57;;;;
2022/10/03 05:25:55;;;;;;;4.35;3.95;;;;;;;6.71;100;96174.57;;;;
2022/10/03 05:27:04;;;;;;;4.35;3.95;;;;;;;6.71;100;96174.57;;;;
2022/10/03 05:28:21;;;;;;;4.35;3.95;;;;;;;6.71;100;96174.57;;;;
2022/10/03 05:29:32;;;;;;;4.25;3.85;;;;;;;6.69;100;96178.27;;;;
2022/10/03 05:30:38;;;;;;;4.25;3.85;;;;;;;6.69;100;96178.27;;;;
2022/10/03 05:31:43;;;;;;;4.25;3.85;;;;;;;6.69;100;96178.27;;;;
2022/10/03 05:32:55;;;;;;;4.25;3.85;;;;;;;6.69;100;96178.27;;;;
2022/10/03 05:34:02;;;;;;;4.25;3.85;;;;;;;6.69;100;96178.27;;;;
2022/10/03 05:35:10;;;;;;;4.25;3.85;;;;;;;6.69;100;96178.27;;;;
2022/10/03 05:36:23;;;;;;;4.25;3.85;;;;;;;6.69;100;96178.27;;;;
2022/10/03 05:37:33;;;;;;;4.25;3.85;;;;;;;6.69;100;96178.27;;;;
2022/10/03 05:39:02;;;;;;;4.25;3.85;;;;;;;6.69;100;96178.27;;;;
2022/10/03 05:40:25;;;;;;;6.900001;4.45;;;;;;;6.7;100;96189.98;;;;
2022/10/03 05:41:28;;;;;;;6.900001;4.45;;;;;;;6.7;100;96189.98;;;;
2022/10/03 05:42:31;;;;;;;6.900001;4.45;;;;;;;6.7;100;96189.98;;;;
2022/10/03 05:43:39;;;;;;;6.900001;4.45;;;;;;;6.7;100;96189.98;;;;
2022/10/03 05:44:50;;;;;;;6.900001;4.45;;;;;;;6.7;100;96189.98;;;;
2022/10/03 05:46:02;;;;;;;6.900001;4.45;;;;;;;6.7;100;96189.98;;;;
2022/10/03 05:47:43;;;;;;;6.900001;4.45;;;;;;;6.7;100;96189.98;;;;
2022/10/03 05:48:51;;;;;;;6.900001;4.45;;;;;;;6.7;100;96189.98;;;;
2022/10/03 05:50:04;;;;;;;5.45;4.950001;;;;;;;6.91;100;96193.33;;;;
2022/10/03 05:51:23;;;;;;;5.45;4.950001;;;;;;;6.91;100;96193.33;;;;
2022/10/03 05:52:45;;;;;;;5.45;4.950001;;;;;;;6.91;100;96193.33;;;;
2022/10/03 05:54:01;;;;;;;5.45;4.950001;;;;;;;6.91;100;96193.33;;;;
2022/10/03 05:55:29;;;;;;;5.45;4.950001;;;;;;;6.91;100;96193.33;;;;
2022/10/03 05:56:41;;;;;;;5.45;4.950001;;;;;;;6.91;100;96193.33;;;;
2022/10/03 05:58:02;;;;;;;5.45;4.950001;;;;;;;6.91;100;96193.33;;;;
2022/10/03 05:59:50;;;;;;;5.45;4.950001;;;;;;;6.91;100;96193.33;;;;
2022/10/03 06:01:03;;;;;;;6.550001;4.75;;;;;;;7.1;100;96205.3;;;;
2022/10/03 06:02:21;;;;;;;6.550001;4.75;;;;;;;7.1;100;96205.3;;;;
2022/10/03 06:04:15;;;;;;;6.550001;4.75;;;;;;;7.1;100;96205.3;;;;
2022/10/03 06:09:35;;;;;;;6.550001;4.75;;;;;;;7.1;100;96205.3;;;;
2022/10/03 06:10:59;;;;;;;6.550001;4.75;;;;;;;7.1;100;96205.3;;;;
2022/10/03 06:12:13;;;;;;;4.799999;4.4;;;;;;;7.38;100;96208.65;;;;
2022/10/03 06:13:19;;;;;;;4.799999;4.4;;;;;;;7.38;100;96208.65;;;;
2022/10/03 06:14:33;;;;;;;4.799999;4.4;;;;;;;7.38;100;96208.65;;;;
2022/10/03 06:15:53;;;;;;;4.799999;4.4;;;;;;;7.38;100;96208.65;;;;
2022/10/03 06:17:03;;;;;;;4.799999;4.4;;;;;;;7.38;100;96208.65;;;;
2022/10/03 06:18:23;;;;;;;4.799999;4.4;;;;;;;7.38;100;96208.65;;;;
2022/10/03 06:20:46;;;;;;;4.799999;4.4;;;;;;;7.38;100;96208.65;;;;
2022/10/03 06:22:23;;;;;;;5.299999;4.8;;;;;;;7.57;100;96226.28;;;;
2022/10/03 06:23:45;;;;;;;5.299999;4.8;;;;;;;7.57;100;96226.28;;;;
2022/10/03 06:26:10;;;;;;;5.299999;4.8;;;;;;;7.57;100;96226.28;;;;
2022/10/03 06:27:44;;;;;;;5.299999;4.8;;;;;;;7.57;100;96226.28;;;;
2022/10/03 06:30:12;;;;;;;5.299999;4.8;;;;;;;7.57;100;96226.28;;;;
2022/10/03 06:31:21;;;;;;;5.299999;4.8;;;;;;;7.57;100;96226.28;;;;
2022/10/03 06:32:51;;;;;;;8.4;6.550001;;;;;;;8.03;100;96240.78;;;;
2022/10/03 06:35:17;;;;;;;8.4;6.550001;;;;;;;8.03;100;96240.78;;;;
2022/10/03 06:44:40;;;;;;;7.85;6.599999;;;;;;;8.7;100;96253.72;;;;
2022/10/03 06:46:00;;;;;;;7.85;6.599999;;;;;;;8.7;100;96253.72;;;;
2022/10/03 06:51:52;;;;;;;7.85;6.599999;;;;;;;8.7;100;96253.72;;;;
2022/10/03 06:53:13;;;;;;;7.85;6.599999;;;;;;;8.7;100;96253.72;;;;
2022/10/03 06:54:30;;;;;;;8.5;7.650001;;;;;;;9.45;100;96258.38;;;;
2022/10/03 06:56:20;;;;;;;8.5;7.650001;;;;;;;9.45;100;96258.38;;;;
2022/10/03 06:57:45;;;;;;;8.5;7.650001;;;;;;;9.45;100;96258.38;;;;
2022/10/03 06:59:26;;;;;;;8.5;7.650001;;;;;;;9.45;100;96258.38;;;;
2022/10/03 07:00:51;;;;;;;8.5;7.650001;;;;;;;9.45;100;96258.38;;;;
2022/10/03 07:01:59;;;;;;;8.5;7.650001;;;;;;;9.45;100;96258.38;;;;
2022/10/03 07:03:22;;;;;;;8.5;7.650001;;;;;;;9.45;100;96258.38;;;;
2022/10/03 07:04:59;;;;;;;8.5;7.650001;;;;;;;9.45;100;96258.38;;;;
2022/10/03 07:06:26;;;;;;;8.5;7.650001;;;;;;;9.45;100;96258.38;;;;
2022/10/03 07:07:49;;;;;;;8.5;7.650001;;;;;;;9.45;100;96258.38;;;;
2022/10/03 07:09:38;;;;;;;8.5;7.650001;;;;;;;9.45;100;96258.38;;;;
2022/10/03 07:11:25;;;;;;;8.5;7.650001;;;;;;;9.45;100;96258.38;;;;
2022/10/03 07:12:36;;;;;;;8.5;7.650001;;;;;;;9.45;100;96258.38;;;;
2022/10/03 07:17:52;;;;;;;8.6;7.2;;;;;;;11;100;96262.29;;;;
2022/10/03 07:19:18;;;;;;;8.6;7.2;;;;;;;11;100;96262.29;;;;
2022/10/03 07:20:35;;;;;;;8.6;7.2;;;;;;;11;100;96262.29;;;;
2022/10/03 07:23:09;;;;;;;8.6;7.2;;;;;;;11;100;96262.29;;;;
2022/10/03 07:24:44;;;;;;;8.6;7.2;;;;;;;11;100;96262.29;;;;
2022/10/03 07:29:06;;;;;;;6.500001;5.8;;;;;;;11.39;100;96260.38;;;;
2022/10/03 07:30:17;;;;;;;6.500001;5.8;;;;;;;11.39;100;96260.38;;;;
2022/10/03 07:31:19;;;;;;;6.500001;5.8;;;;;;;11.39;100;96260.38;;;;
2022/10/03 07:32:33;;;;;;;6.500001;5.8;;;;;;;11.39;100;96260.38;;;;
2022/10/03 07:33:57;;;;;;;6.500001;5.8;;;;;;;11.39;100;96260.38;;;;
2022/10/03 07:35:24;;;;;;;6.500001;5.8;;;;;;;11.39;100;96260.38;;;;
2022/10/03 07:42:13;;;;;;;6.45;5.749999;;;;;;;11.94;100;96278.99;;;;
2022/10/03 07:43:34;;;;;;;6.45;5.749999;;;;;;;11.94;100;96278.99;;;;
2022/10/03 07:45:02;;;;;;;6.45;5.749999;;;;;;;11.94;100;96278.99;;;;
2022/10/03 07:46:23;;;;;;;6.45;5.749999;;;;;;;11.94;100;96278.99;;;;
2022/10/03 07:47:58;;;;;;;6;5.400001;;;;;;;12.4;100;96288.39;;;;
2022/10/03 07:49:16;;;;;;;6;5.400001;;;;;;;12.4;100;96288.39;;;;
2022/10/03 07:50:39;;;;;;;6;5.400001;;;;;;;12.4;100;96288.39;;;;
2022/10/03 07:51:49;;;;;;;6;5.400001;;;;;;;12.4;100;96288.39;;;;
2022/10/03 07:53:11;;;;;;;6;5.400001;;;;;;;12.4;100;96288.39;;;;
2022/10/03 07:55:28;;;;;;;6;5.400001;;;;;;;12.4;100;96288.39;;;;
2022/10/03 07:56:52;;;;;;;6;5.400001;;;;;;;12.4;100;96288.39;;;;
2022/10/03 07:58:06;;;;;;;6.299999;5.7;;;;;;;13.07;100;96283.89;;;;
2022/10/03 07:59:23;;;;;;;6.299999;5.7;;;;;;;13.07;100;96283.89;;;;
2022/10/03 08:01:14;;;;;;;6.299999;5.7;;;;;;;13.07;100;96283.89;;;;
2022/10/03 08:02:33;;;;;;;6.299999;5.7;;;;;;;13.07;100;96283.89;;;;
2022/10/03 08:03:57;;;;;;;6.299999;5.7;;;;;;;13.07;100;96283.89;;;;
2022/10/03 08:06:22;;;;;;;6.299999;5.7;;;;;;;13.07;100;96283.89;;;;
2022/10/03 08:07:30;;;;;;;6.299999;5.7;;;;;;;13.07;100;96283.89;;;;
2022/10/03 08:08:51;;;;;;;9.1;7.950001;;;;;;;13.37;100;96290.05;;;;
2022/10/03 08:10:08;;;;;;;9.1;7.950001;;;;;;;13.37;100;96290.05;;;;
2022/10/03 08:11:21;;;;;;;9.1;7.950001;;;;;;;13.37;100;96290.05;;;;
2022/10/03 08:13:19;;;;;;;9.1;7.950001;;;;;;;13.37;100;96290.05;;;;
2022/10/03 08:14:30;;;;;;;9.1;7.950001;;;;;;;13.37;100;96290.05;;;;
2022/10/03 08:15:41;;;;;;;9.1;7.950001;;;;;;;13.37;100;96290.05;;;;
2022/10/03 08:16:59;;;;;;;9.1;7.950001;;;;;;;13.37;100;96290.05;;;;
2022/10/03 08:18:25;;;;;;;9.1;7.950001;;;;;;;13.37;100;96290.05;;;;
2022/10/03 08:19:46;;;;;;;5.5;5;;;;;;;13.48;100;96289.94;;;;
2022/10/03 08:21:10;;;;;;;5.5;5;;;;;;;13.48;100;96289.94;;;;
2022/10/03 08:22:16;;;;;;;5.5;5;;;;;;;13.48;100;96289.94;;;;
2022/10/03 08:23:31;;;;;;;5.5;5;;;;;;;13.48;100;96289.94;;;;
2022/10/03 08:24:52;;;;;;;5.5;5;;;;;;;13.48;100;96289.94;;;;
2022/10/03 08:26:11;;;;;;;5.5;5;;;;;;;13.48;100;96289.94;;;;
2022/10/03 08:27:19;;;;;;;5.5;5;;;;;;;13.48;100;96289.94;;;;
2022/10/03 08:28:35;;;;;;;5.5;5;;;;;;;13.48;100;96289.94;;;;
2022/10/03 08:29:51;;;;;;;5.5;5;;;;;;;13.48;100;96289.94;;;;
2022/10/03 08:31:05;;;;;;;6.050001;5.25;;;;;;;13.51;100;96293;;;;
2022/10/03 08:32:23;;;;;;;6.050001;5.25;;;;;;;13.51;100;96293;;;;
2022/10/03 08:33:47;;;;;;;6.050001;5.25;;;;;;;13.51;100;96293;;;;
2022/10/03 08:34:59;;;;;;;6.050001;5.25;;;;;;;13.51;100;96293;;;;
2022/10/03 08:36:23;;;;;;;6.050001;5.25;;;;;;;13.51;100;96293;;;;
2022/10/03 08:37:43;;;;;;;6.050001;5.25;;;;;;;13.51;100;96293;;;;
2022/10/03 08:40:10;;;;;;;6.050001;5.25;;;;;;;13.51;100;96293;;;;
2022/10/03 08:42:54;;;;;;;5.35;4.8;;;;;;;13.48;100;96297.81;;;;
2022/10/03 08:44:19;;;;;;;5.35;4.8;;;;;;;13.48;100;96297.81;;;;
2022/10/03 08:46:05;;;;;;;5.35;4.8;;;;;;;13.48;100;96297.81;;;;
2022/10/03 08:47:35;;;;;;;5.35;4.8;;;;;;;13.48;100;96297.81;;;;
2022/10/03 08:49:01;;;;;;;5.35;4.8;;;;;;;13.48;100;96297.81;;;;
2022/10/03 08:50:21;;;;;;;5.35;4.8;;;;;;;13.48;100;96297.81;;;;
2022/10/03 08:55:41;;;;;;;4.400001;4;;;;;;;13.65;100;96313.22;;;;
2022/10/03 08:56:50;;;;;;;4.400001;4;;;;;;;13.65;100;96313.22;;;;